Time;durP1;ratioP1;P1;durP2;ratioP2;P2;SDS_P1;SDS_P2;PMS_P1;PMS_P2;Temp;Humidity;BMP_temperature;BMP_pressure;BME280_temperature;BME280_humidity;BME280_pressure;Samples;Min_cycle;Max_cycle;Signal;HPM_P1;HPM_P2
2021/10/27 00:00:45;;;;;;;45.83;33.10;;;231.20;1868.80;;;;;;4973227;28;20027;-68
2021/10/27 00:03:11;;;;;;;49.15;33.88;;;;;;;;;;4973467;28;20101;-68
2021/10/27 00:05:37;;;;;;;47.83;33.92;;;256.50;1766.40;;;;;;4973808;28;20035;-69
2021/10/27 00:08:03;;;;;;;52.13;35.72;;;256.50;1766.40;;;;;;4973403;28;20054;-69
2021/10/27 00:10:29;;;;;;;50.38;37.05;;;256.60;1792.00;;;;;;4973645;28;20031;-68
2021/10/27 00:12:55;;;;;;;55.13;37.92;;;256.70;1766.40;;;;;;4973675;28;20023;-68
2021/10/27 00:15:21;;;;;;;51.88;37.63;;;256.30;1817.60;;;;;;4973536;28;20026;-69
2021/10/27 00:17:47;;;;;;;55.28;39.25;;;256.20;1817.60;;;;;;4973835;28;20054;-68
2021/10/27 00:20:13;;;;;;;52.42;38.60;;;256.80;1766.40;;;;;;4973217;28;20125;-69
2021/10/27 00:22:40;;;;;;;54.63;37.03;;;;;;;;;;4973403;28;20477;-68
2021/10/27 00:25:07;;;;;;;47.22;33.55;;;281.90;1715.20;;;;;;4973762;28;20433;-68
2021/10/27 00:27:33;;;;;;;45.75;33.42;;;281.90;1715.20;;;;;;4977058;28;20109;-69
2021/10/27 00:29:58;;;;;;;47.65;33.75;;;282.00;1715.20;;;;;;4976980;28;20054;-69
2021/10/27 00:32:24;;;;;;;47.17;32.75;;;281.60;1740.80;;;;;;4976952;28;20097;-68
2021/10/27 00:34:50;;;;;;;50.75;37.25;;;281.90;1715.20;;;;;;4976643;28;20035;-68
2021/10/27 00:37:15;;;;;;;47.28;34.92;;;282.20;1689.60;;;;;;4976905;28;20548;-69
2021/10/27 00:39:41;;;;;;;48.35;34.85;;;282.00;1689.60;;;;;;4977163;28;20049;-69
2021/10/27 00:42:10;;;;;;;51.85;35.25;;;281.90;1689.60;;;;;;4976796;28;20025;-69
2021/10/27 00:44:36;;;;;;;47.60;35.58;;;282.00;1715.20;;;;;;4976808;28;20030;-68
2021/10/27 00:47:04;;;;;;;50.45;37.15;;;;;;;;;;4976591;28;20037;-68
2021/10/27 00:49:30;;;;;;;61.42;37.78;;;;;;;;;;4976693;28;20378;-68
2021/10/27 00:51:57;;;;;;;53.33;39.83;;;;;;;;;;4976720;28;20081;-68
2021/10/27 00:54:24;;;;;;;73.55;48.78;;;;;;;;;;4976664;28;20564;-68
2021/10/27 00:56:52;;;;;;;75.38;51.45;;;;;;;;;;4976726;28;20027;-67
2021/10/27 00:59:18;;;;;;;74.57;48.85;;;;;;;;;;4976246;28;20031;-68
2021/10/27 01:01:44;;;;;;;55.88;38.15;;;282.20;1664.00;;;;;;4976240;28;20402;-68
2021/10/27 01:04:09;;;;;;;49.97;36.38;;;282.20;1664.00;;;;;;4976423;28;20037;-68
2021/10/27 01:06:35;;;;;;;53.35;39.25;;;282.20;1689.60;;;;;;4976409;28;20019;-69
2021/10/27 01:09:01;;;;;;;55.10;40.65;;;282.30;1664.00;;;;;;4976430;28;20027;-68
2021/10/27 01:11:27;;;;;;;61.58;42.78;;;282.20;1689.60;;;;;;4976266;28;20022;-68
2021/10/27 01:13:53;;;;;;;63.47;44.90;;;282.20;1664.00;;;;;;4976291;28;20063;-68
2021/10/27 01:16:19;;;;;;;58.25;42.72;;;282.00;1689.60;;;;;;4976151;28;20047;-69
2021/10/27 01:18:45;;;;;;;54.42;40.55;;;256.90;1740.80;;;;;;4976061;28;20485;-68
2021/10/27 01:21:11;;;;;;;71.40;47.22;;;256.20;1792.00;;;;;;4976025;28;20118;-68
2021/10/27 01:23:37;;;;;;;73.22;46.90;;;;;;;;;;4976034;28;20039;-68
2021/10/27 01:26:07;;;;;;;64.72;43.42;;;;;;;;;;4976649;28;20502;-68
2021/10/27 01:28:41;;;;;;;58.28;43.22;;;;;;;;;;4975886;28;20027;-68
2021/10/27 01:31:07;;;;;;;66.65;46.00;;;;;;;;;;4975901;28;20019;-68
2021/10/27 01:33:33;;;;;;;68.18;48.58;;;;;;;;;;4975733;28;20033;-68
2021/10/27 01:35:59;;;;;;;73.53;49.22;;;256.30;1792.00;;;;;;4975489;28;20043;-68
2021/10/27 01:38:24;;;;;;;63.72;43.65;;;256.30;1766.40;;;;;;4974953;28;20089;-68
2021/10/27 01:40:50;;;;;;;55.10;40.17;;;256.20;1792.00;;;;;;4975898;28;20031;-68
2021/10/27 01:43:16;;;;;;;53.78;37.20;;;256.20;1792.00;;;;;;4975858;28;20492;-68
2021/10/27 01:45:43;;;;;;;47.55;34.65;;;256.40;1792.00;;;;;;4975576;28;20046;-68
2021/10/27 01:48:09;;;;;;;40.80;32.33;;;256.20;1996.80;;;;;;4975627;28;20023;-68
2021/10/27 01:50:35;;;;;;;45.90;32.22;;;231.20;1868.80;;;;;;4975542;28;20058;-68
2021/10/27 01:53:01;;;;;;;43.30;30.33;;;;;;;;;;4975865;28;20386;-68
2021/10/27 01:55:28;;;;;;;40.38;31.15;;;231.10;1868.80;;;;;;4975381;28;20030;-68
2021/10/27 01:57:54;;;;;;;46.67;31.92;;;;;;;;;;4975564;28;20031;-68
2021/10/27 02:00:20;;;;;;;53.75;35.67;;;;;;;;;;4975400;28;20041;-68
2021/10/27 02:02:46;;;;;;;45.55;33.63;;;256.50;1740.80;;;;;;4975212;28;20169;-68
2021/10/27 02:05:13;;;;;;;51.30;36.03;;;;;;;;;;4975359;28;20524;-68
2021/10/27 02:07:40;;;;;;;51.88;35.08;;;256.10;1766.40;;;;;;4975373;28;20031;-68
2021/10/27 02:10:07;;;;;;;49.90;34.35;;;256.00;1766.40;;;;;;4975140;28;20462;-68
2021/10/27 02:12:34;;;;;;;40.28;31.65;;;231.10;1817.60;;;;;;4975553;28;20162;-69
2021/10/27 02:15:00;;;;;;;40.80;30.70;;;231.10;1817.60;;;;;;4975345;28;20466;-69
2021/10/27 02:17:26;;;;;;;42.60;30.77;;;231.20;1817.60;;;;;;4965489;28;20102;-68
2021/10/27 02:19:52;;;;;;;37.00;28.95;;;231.20;1817.60;;;;;;4970899;28;20158;-68
2021/10/27 02:22:18;;;;;;;36.95;28.33;;;;;;;;;;4975294;28;20470;-68
2021/10/27 02:24:44;;;;;;;44.20;28.27;;;;;;;;;;4975055;28;20346;-68
2021/10/27 02:27:10;;;;;;;38.38;28.30;;;;;;;;;;4974959;28;20018;-68
2021/10/27 02:29:36;;;;;;;43.75;29.95;;;281.60;1715.20;;;;;;4975319;28;20034;-68
2021/10/27 02:32:02;;;;;;;35.80;27.55;;;;;;;;;;4974707;28;20027;-68
2021/10/27 02:34:29;;;;;;;37.00;28.15;;;256.70;1740.80;;;;;;4974569;28;20034;-68
2021/10/27 02:36:55;;;;;;;37.95;29.80;;;256.60;1766.40;;;;;;4974755;28;20049;-68
2021/10/27 02:39:21;;;;;;;38.42;29.13;;;256.20;1817.60;;;;;;4974726;28;20488;-68
2021/10/27 02:41:47;;;;;;;39.67;29.05;;;256.10;1817.60;;;;;;4974616;28;20031;-69
2021/10/27 02:44:13;;;;;;;42.25;29.75;;;256.00;1817.60;;;;;;4974658;28;20023;-68
2021/10/27 02:46:39;;;;;;;39.10;28.55;;;231.20;1843.20;;;;;;4974602;28;20552;-68
2021/10/27 02:49:05;;;;;;;40.88;30.05;;;231.10;1868.80;;;;;;4974273;28;20027;-68
2021/10/27 02:51:31;;;;;;;35.13;28.40;;;231.20;1868.80;;;;;;4974305;28;20027;-69
2021/10/27 02:53:57;;;;;;;43.05;30.05;;;231.10;1868.80;;;;;;4974291;28;20019;-69
2021/10/27 02:56:23;;;;;;;39.95;28.60;;;231.00;1894.40;;;;;;4974490;28;20437;-68
2021/10/27 02:58:49;;;;;;;36.95;28.58;;;256.10;1843.20;;;;;;4974187;28;20031;-68
2021/10/27 03:01:14;;;;;;;36.33;27.20;;;256.60;1766.40;;;;;;4974294;28;20030;-68
2021/10/27 03:03:40;;;;;;;36.88;27.50;;;281.60;1740.80;;;;;;4974189;28;20113;-68
2021/10/27 03:06:06;;;;;;;34.95;28.15;;;256.90;1740.80;;;;;;4974454;28;20477;-68
2021/10/27 03:08:32;;;;;;;44.20;29.25;;;256.30;1817.60;;;;;;4974569;28;20038;-69
2021/10/27 03:10:57;;;;;;;40.15;29.65;;;256.10;1843.20;;;;;;4974275;28;20031;-69
2021/10/27 03:13:23;;;;;;;42.22;30.98;;;256.20;1817.60;;;;;;4974061;28;20018;-69
2021/10/27 03:15:49;;;;;;;39.78;30.20;;;256.00;1843.20;;;;;;4974195;28;20030;-68
2021/10/27 03:18:15;;;;;;;46.95;32.92;;;256.10;1843.20;;;;;;4973832;28;20458;-68
2021/10/27 03:20:41;;;;;;;50.15;34.15;;;231.30;1868.80;;;;;;4973912;28;20043;-68
2021/10/27 03:23:07;;;;;;;48.70;32.25;;;231.30;1894.40;;;;;;4973910;28;20537;-68
2021/10/27 03:25:33;;;;;;;41.50;30.05;;;231.20;1894.40;;;;;;4974052;28;20031;-69
2021/10/27 03:27:59;;;;;;;39.85;30.30;;;256.30;1868.80;;;;;;4974078;28;20106;-69
2021/10/27 03:30:25;;;;;;;38.65;29.02;;;256.40;1843.20;;;;;;4973707;28;20509;-68
2021/10/27 03:32:51;;;;;;;39.28;29.40;;;256.30;1868.80;;;;;;4974161;28;20037;-68
2021/10/27 03:35:17;;;;;;;37.00;28.38;;;256.40;1843.20;;;;;;4973464;28;20051;-68
2021/10/27 03:37:43;;;;;;;46.00;31.88;;;256.50;1843.20;;;;;;4973891;28;20031;-68
2021/10/27 03:40:10;;;;;;;45.28;32.95;;;256.80;1792.00;;;;;;4973493;28;20504;-68
2021/10/27 03:42:36;;;;;;;46.90;32.17;;;281.80;1766.40;;;;;;4973788;28;20031;-67
2021/10/27 03:45:02;;;;;;;40.05;30.15;;;;;;;;;;4973609;28;20030;-67
2021/10/27 03:47:28;;;;;;;42.03;31.65;;;282.30;1689.60;;;;;;4973658;28;20101;-69
2021/10/27 03:49:55;;;;;;;35.83;28.70;;;282.30;1689.60;;;;;;4973497;28;20110;-69
2021/10/27 03:52:21;;;;;;;40.80;30.15;;;281.90;1766.40;;;;;;4973766;28;20027;-68
2021/10/27 03:54:47;;;;;;;42.90;29.63;;;256.90;1792.00;;;;;;4973582;28;20062;-68
2021/10/27 03:57:13;;;;;;;39.90;29.02;;;256.80;1792.00;;;;;;4973508;28;20046;-68
2021/10/27 03:59:39;;;;;;;42.35;30.50;;;256.50;1843.20;;;;;;4973711;28;20478;-69
2021/10/27 04:02:04;;;;;;;41.85;31.55;;;256.20;1868.80;;;;;;4977402;28;20080;-68
2021/10/27 04:04:31;;;;;;;39.42;30.48;;;256.20;1868.80;;;;;;4977851;28;20027;-68
2021/10/27 04:06:56;;;;;;;46.83;34.22;;;256.20;1868.80;;;;;;4977389;28;20035;-68
2021/10/27 04:09:22;;;;;;;54.15;36.92;;;256.60;1843.20;;;;;;4977511;28;20030;-68
2021/10/27 04:11:48;;;;;;;62.15;44.00;;;256.70;1817.60;;;;;;4977526;28;20533;-68
2021/10/27 04:14:14;;;;;;;62.70;44.40;;;256.70;1843.20;;;;;;4977389;28;20027;-69
2021/10/27 04:16:40;;;;;;;66.00;44.58;;;256.60;1843.20;;;;;;4977184;28;20042;-68
2021/10/27 04:19:06;;;;;;;67.10;44.53;;;256.50;1843.20;;;;;;4959176;28;20478;-68
2021/10/27 04:21:32;;;;;;;62.33;40.95;;;256.50;1868.80;;;;;;4977173;28;20522;-68
2021/10/27 04:23:58;;;;;;;55.60;37.75;;;256.40;1868.80;;;;;;4977179;28;20029;-69
2021/10/27 04:26:24;;;;;;;51.25;33.63;;;256.30;1894.40;;;;;;4977155;28;20046;-68
2021/10/27 04:28:52;;;;;;;49.47;32.78;;;256.30;1894.40;;;;;;4977461;28;20023;-68
2021/10/27 04:31:18;;;;;;;45.30;34.03;;;256.20;1945.60;;;;;;4977058;28;20106;-68
2021/10/27 04:33:43;;;;;;;53.50;36.72;;;256.40;1894.40;;;;;;4977499;28;20110;-69
2021/10/27 04:36:09;;;;;;;49.80;34.47;;;256.90;1817.60;;;;;;4959164;28;20476;-68
2021/10/27 04:38:35;;;;;;;47.33;35.45;;;281.90;1843.20;;;;;;4977099;28;20390;-68
2021/10/27 04:41:01;;;;;;;53.38;37.63;;;282.10;1792.00;;;;;;4976876;28;20497;-68
2021/10/27 04:43:26;;;;;;;46.75;35.35;;;282.20;1740.80;;;;;;4976935;28;20098;-68
2021/10/27 04:45:52;;;;;;;54.65;36.53;;;282.40;1740.80;;;;;;4976905;28;20033;-69
2021/10/27 04:48:18;;;;;;;107.40;74.28;;;282.50;1740.80;;;;;;4976806;28;20085;-68
2021/10/27 04:50:44;;;;;;;67.63;55.08;;;282.30;1792.00;;;;;;4977006;28;20027;-68
2021/10/27 04:53:22;;;;;;;55.60;37.28;;;282.40;1766.40;;;;;;4976971;28;20385;-69
2021/10/27 04:55:48;;;;;;;49.92;35.97;;;282.10;1792.00;;;;;;4976778;28;20053;-68
2021/10/27 04:58:14;;;;;;;67.38;44.15;;;282.10;1792.00;;;;;;4976694;28;20085;-68
2021/10/27 05:00:39;;;;;;;61.80;43.17;;;282.30;1792.00;;;;;;4976569;28;20031;-69
2021/10/27 05:03:05;;;;;;;70.57;41.47;;;282.40;1792.00;;;;;;4959265;28;20382;-69
2021/10/27 05:05:34;;;;;;;64.78;38.25;;;282.50;1792.00;;;;;;4976556;28;20118;-68
2021/10/27 05:08:02;;;;;;;55.00;37.70;;;282.50;1766.40;;;;;;4976389;28;20031;-67
2021/10/27 05:10:28;;;;;;;62.92;39.65;;;282.30;1792.00;;;;;;4976698;28;20031;-68
2021/10/27 05:12:54;;;;;;;62.55;43.53;;;282.10;1792.00;;;;;;4975804;28;20034;-69
2021/10/27 05:15:19;;;;;;;61.03;43.28;;;281.70;1868.80;;;;;;4976445;28;20093;-68
2021/10/27 05:17:45;;;;;;;69.10;47.10;;;256.90;1868.80;;;;;;4976255;28;20385;-69
2021/10/27 05:20:12;;;;;;;69.25;46.25;;;256.80;1894.40;;;;;;4976359;28;20455;-68
2021/10/27 05:22:38;;;;;;;66.75;46.47;;;256.70;1894.40;;;;;;4975883;28;20019;-68
2021/10/27 05:25:03;;;;;;;67.38;46.10;;;281.60;1894.40;;;;;;4975959;28;20038;-70
2021/10/27 05:27:31;;;;;;;77.25;50.95;;;281.90;1868.80;;;;;;4976107;28;20381;-69
2021/10/27 05:29:57;;;;;;;87.90;55.97;;;282.00;1843.20;;;;;;4975867;28;20035;-68
2021/10/27 05:32:24;;;;;;;88.63;54.88;;;282.40;1792.00;;;;;;4975896;28;20034;-68
2021/10/27 05:34:50;;;;;;;76.95;51.95;;;307.20;1792.00;;;;;;4975737;28;20063;-68
2021/10/27 05:37:16;;;;;;;74.60;47.15;;;;;;;;;;4975871;28;20026;-68
2021/10/27 05:39:43;;;;;;;75.57;49.10;;;;;;;;;;4975811;28;20031;-68
2021/10/27 05:42:13;;;;;;;81.20;50.67;;;282.40;1766.40;;;;;;4975677;28;20019;-69
2021/10/27 05:44:39;;;;;;;144.82;93.65;;;281.90;1843.20;;;;;;4975818;28;20070;-69
2021/10/27 05:47:05;;;;;;;98.28;66.40;;;281.70;1868.80;;;;;;4975679;28;20051;-69
2021/10/27 05:54:57;;;;;;;125.00;92.20;;;281.70;1894.40;;;;;;4975699;28;20027;-68
2021/10/27 05:57:41;;;;;;;96.78;60.63;;;281.60;1920.00;;;;;;4975696;28;20077;-69
2021/10/27 06:00:08;;;;;;;;;;;281.60;1920.00;;;;;;4975597;28;20033;-69
2021/10/27 06:02:34;;;;;;;104.70;61.33;;;281.70;1920.00;;;;;;4975512;28;19993;-69
2021/10/27 06:05:00;;;;;;;98.65;64.72;;;281.70;1920.00;;;;;;4975424;28;20106;-68
2021/10/27 06:07:25;;;;;;;95.82;63.42;;;281.80;1894.40;;;;;;4975365;28;20027;-66
2021/10/27 06:09:53;;;;;;;109.00;68.68;;;281.90;1894.40;;;;;;4975151;28;20148;-68
2021/10/27 06:12:20;;;;;;;95.53;63.92;;;282.00;1894.40;;;;;;4975334;28;20034;-66
2021/10/27 06:14:46;;;;;;;93.82;62.85;;;307.20;1843.20;;;;;;4975144;28;20037;-68
2021/10/27 06:17:12;;;;;;;90.07;65.68;;;307.20;1843.20;;;;;;4975287;28;20392;-68
2021/10/27 06:19:38;;;;;;;92.38;62.10;;;307.20;1868.80;;;;;;4975261;28;20034;-68
2021/10/27 06:22:05;;;;;;;99.13;66.00;;;;;;;;;;4974994;28;20486;-66
2021/10/27 06:24:31;;;;;;;125.20;74.43;;;307.50;1817.60;;;;;;4974395;28;20037;-66
2021/10/27 06:26:58;;;;;;;100.50;69.50;;;308.10;1740.80;;;;;;4974898;28;20063;-66
2021/10/27 06:29:34;;;;;;;120.93;79.18;;;308.10;1894.40;;;;;;4974845;28;20033;-67
2021/10/27 06:34:50;;;;;;;105.03;74.53;;;332.90;1766.40;;;;;;4975137;28;20508;-66
2021/10/27 06:48:02;;;;;;;132.02;92.65;;;333.10;1766.40;;;;;;4974968;28;20030;-67
2021/10/27 06:50:29;;;;;;;139.27;100.03;;;;;;;;;;4974123;28;20027;-67
2021/10/27 06:52:55;;;;;;;136.50;95.15;;;;;;;;;;4974430;28;20077;-67
2021/10/27 06:55:22;;;;;;;134.98;98.82;;;;;;;;;;4974267;28;20500;-67
2021/10/27 06:57:48;;;;;;;121.13;88.20;;;;;;;;;;4974412;28;20022;-67
2021/10/27 07:00:21;;;;;;;136.95;99.95;;;;;;;;;;4972804;28;20461;-69
2021/10/27 07:15:42;;;;;;;132.77;88.32;;;359.00;1587.20;;;;;;4974325;28;20177;-68
2021/10/27 07:18:08;;;;;;;263.40;144.73;;;359.20;1561.60;;;;;;4974043;28;20109;-68
2021/10/27 07:20:35;;;;;;;144.98;89.30;;;384.00;1536.00;;;;;;4974133;28;20061;-67
2021/10/27 07:23:01;;;;;;;126.38;84.15;;;384.10;1510.40;;;;;;4973916;28;20029;-67
2021/10/27 07:25:29;;;;;;;148.10;94.10;;;384.30;1510.40;;;;;;4973681;28;20034;-67
2021/10/27 07:27:54;;;;;;;145.43;94.18;;;384.40;1484.80;;;;;;4974412;28;20102;-67
2021/10/27 07:30:21;;;;;;;124.25;83.07;;;384.50;1510.40;;;;;;4973692;28;20105;-67
2021/10/27 07:32:52;;;;;;;119.28;81.90;;;384.80;1459.20;;;;;;4974060;28;20081;-67
2021/10/27 07:35:25;;;;;;;;;;;384.60;1484.80;;;;;;4973831;28;20039;-68
2021/10/27 07:40:46;;;;;;;109.72;81.35;;;384.70;1484.80;;;;;;4913847;29;20048;-68
2021/10/27 07:43:32;;;;;;;115.05;82.97;;;384.80;1484.80;;;;;;4914267;29;20440;-67
2021/10/27 07:46:00;;;;;;;109.25;77.15;;;409.60;1510.40;;;;;;4914293;29;20040;-68
2021/10/27 07:48:27;;;;;;;110.47;80.82;;;;;;;;;;4914098;29;20059;-68
2021/10/27 07:50:53;;;;;;;108.15;79.57;;;410.10;1459.20;;;;;;4913873;29;20029;-69
2021/10/27 07:53:20;;;;;;;106.15;75.50;;;410.10;1459.20;;;;;;4913826;29;20025;-68
2021/10/27 07:55:50;;;;;;;103.07;73.68;;;410.10;1484.80;;;;;;4913844;29;20035;-68
2021/10/27 07:58:27;;;;;;;107.40;72.10;;;410.00;1484.80;;;;;;4913940;29;20056;-68
2021/10/27 08:00:57;;;;;;;104.85;68.57;;;435.20;1433.60;;;;;;4913826;29;20507;-66
2021/10/27 08:03:23;;;;;;;105.07;71.03;;;435.40;1459.20;;;;;;4887950;29;20024;-69
2021/10/27 08:05:49;;;;;;;91.47;68.47;;;435.80;1408.00;;;;;;4913904;29;20052;-70
2021/10/27 08:08:22;;;;;;;92.63;67.32;;;435.50;1433.60;;;;;;4913585;29;20036;-69
2021/10/27 08:10:48;;;;;;;89.72;64.05;;;;;;;;;;4913863;29;20058;-68
2021/10/27 08:13:14;;;;;;;86.93;64.70;;;436.00;1356.80;;;;;;4913808;29;20032;-68
2021/10/27 08:15:40;;;;;;;78.68;53.08;;;436.10;1356.80;;;;;;4914066;29;20032;-66
2021/10/27 08:18:14;;;;;;;68.95;49.72;;;436.10;1356.80;;;;;;4951384;28;20035;-67
2021/10/27 08:20:41;;;;;;;72.60;53.30;;;436.10;1356.80;;;;;;4973136;28;20035;-67
2021/10/27 08:23:10;;;;;;;69.43;51.40;;;;;;;;;;4972933;28;20023;-66
2021/10/27 08:25:49;;;;;;;68.53;51.97;;;;;;;;;;4973303;28;20373;-67
2021/10/27 08:28:17;;;;;;;86.93;63.08;;;;;;;;;;4972998;28;20026;-66
2021/10/27 08:33:20;;;;;;;85.00;61.78;;;;;;;;;;4973136;28;20031;-66
2021/10/27 08:35:47;;;;;;;80.18;56.03;;;;;;;;;;4973017;28;20046;-69
2021/10/27 08:38:13;;;;;;;77.95;55.50;;;;;;;;;;4972994;28;20054;-66
2021/10/27 08:40:44;;;;;;;71.88;51.65;;;486.80;1228.80;;;;;;4972739;28;20118;-67
2021/10/27 08:43:11;;;;;;;;;;;;;;;;;;4973492;28;20057;-67
2021/10/27 08:45:38;;;;;;;65.70;52.47;;;;;;;;;;4972831;28;19910;-67
2021/10/27 08:48:08;;;;;;;63.78;47.22;;;512.00;1203.20;;;;;;4976402;28;20481;-67
2021/10/27 08:50:34;;;;;;;65.13;51.80;;;487.30;1203.20;;;;;;4976653;28;20037;-67
2021/10/27 08:53:02;;;;;;;47.67;33.88;;;;;;;;;;4976553;28;20015;-66
2021/10/27 08:55:28;;;;;;;78.03;53.33;;;;;;;;;;4976233;28;20375;-66
2021/10/27 08:57:56;;;;;;;60.13;44.75;;;512.60;1152.00;;;;;;4976628;28;20019;-67
2021/10/27 09:00:27;;;;;;;40.08;31.55;;;;;;;;;;4976425;28;20038;-67
2021/10/27 09:03:04;;;;;;;53.03;35.05;;;;;;;;;;4976212;28;20018;-66
2021/10/27 09:17:01;;;;;;;38.00;26.90;;;;;;;;;;4878763;29;20080;-67
2021/10/27 10:04:09;;;;;;;60.90;41.33;;;;;;;;;;4859853;29;20063;-66
2021/10/27 10:06:39;;;;;;;43.25;32.20;;;;;;;;;;4859501;29;20353;-66
2021/10/27 10:09:05;;;;;;;43.83;29.33;;;;;;;;;;4859550;29;20048;-67
2021/10/27 10:11:32;;;;;;;73.70;49.45;;;;;;;;;;4859307;29;20461;-66
2021/10/27 10:14:01;;;;;;;72.60;48.03;;;;;;;;;;4859594;29;20037;-66
2021/10/27 10:16:27;;;;;;;50.22;36.55;;;512.70;1075.20;;;;;;4859302;29;20053;-67
2021/10/27 10:18:58;;;;;;;61.63;35.70;;;;;;;;;;4859419;29;20030;-66
2021/10/27 10:21:28;;;;;;;42.35;26.80;;;512.10;1100.80;;;;;;4859402;29;20033;-66
2021/10/27 10:24:16;;;;;;;78.47;48.17;;;487.10;1152.00;;;;;;4859058;29;20567;-66
2021/10/27 10:26:43;;;;;;;48.50;31.38;;;;;;;;;;4859230;29;20392;-66
2021/10/27 10:29:10;;;;;;;72.03;41.65;;;;;;;;;;4879508;28;20489;-66
2021/10/27 10:31:38;;;;;;;107.80;76.45;;;;;;;;;;4974893;28;20066;-67
2021/10/27 10:34:09;;;;;;;59.92;36.35;;;;;;;;;;4974707;28;20473;-66
2021/10/27 10:36:44;;;;;;;33.10;25.83;;;;;;;;;;4974707;28;20383;-66
2021/10/27 10:39:52;;;;;;;38.40;27.83;;;;;;;;;;4961806;28;20508;-66
2021/10/27 10:43:19;;;;;;;54.67;30.23;;;486.40;1228.80;;;;;;4914808;29;20159;-68
2021/10/27 10:57:12;;;;;;;199.48;140.75;;;;;;;;;;4877246;29;20052;-67
2021/10/27 11:00:16;;;;;;;158.35;91.95;;;;;;;;;;4876871;29;20073;-67
2021/10/27 11:43:18;;;;;;;56.95;40.97;;;486.90;1228.80;;;;;;4973739;28;20035;-68
2021/10/27 11:45:54;;;;;;;66.95;54.50;;;487.00;1228.80;;;;;;4973186;28;20027;-67
2021/10/27 11:51:14;;;;;;;55.17;33.70;;;486.90;1254.40;;;;;;4960670;28;20023;-67
2021/10/27 11:53:47;;;;;;;55.17;36.33;;;486.70;1254.40;;;;;;4973050;28;20049;-67
2021/10/27 11:56:16;;;;;;;37.08;29.77;;;486.80;1254.40;;;;;;4973384;28;20027;-67
2021/10/27 11:58:50;;;;;;;42.00;33.08;;;486.80;1254.40;;;;;;4973275;28;20112;-67
2021/10/27 12:01:30;;;;;;;46.72;32.13;;;486.90;1254.40;;;;;;4969903;28;20513;-67
2021/10/27 12:04:16;;;;;;;48.28;30.80;;;486.90;1254.40;;;;;;4973090;28;20118;-69
2021/10/27 12:07:02;;;;;;;44.53;31.00;;;486.80;1254.40;;;;;;4973003;28;20478;-67
2021/10/27 12:09:42;;;;;;;54.47;34.05;;;486.80;1254.40;;;;;;4973040;28;20026;-66
2021/10/27 12:15:37;;;;;;;48.65;32.35;;;487.00;1254.40;;;;;;4973388;28;20086;-66
2021/10/27 12:18:08;;;;;;;45.80;30.33;;;;;;;;;;4972582;28;20124;-67
2021/10/27 12:20:40;;;;;;;42.05;30.67;;;;;;;;;;4961360;28;20062;-66
2021/10/27 12:23:07;;;;;;;48.55;31.42;;;;;;;;;;4976753;28;20093;-66
2021/10/27 12:25:34;;;;;;;43.53;29.70;;;;;;;;;;4976711;28;20026;-67
2021/10/27 12:28:05;;;;;;;42.10;30.80;;;;;;;;;;4976763;28;20027;-66
2021/10/27 12:30:39;;;;;;;41.22;30.17;;;;;;;;;;4976648;28;20030;-66
2021/10/27 12:33:05;;;;;;;40.80;31.98;;;;;;;;;;4977178;28;20034;-66
2021/10/27 12:35:32;;;;;;;39.72;30.95;;;;;;;;;;4976896;28;20489;-69
2021/10/27 12:38:14;;;;;;;44.72;32.13;;;;;;;;;;4976454;28;20035;-69
2021/10/27 12:40:44;;;;;;;39.85;33.75;;;;;;;;;;4976524;28;20034;-69
2021/10/27 12:43:19;;;;;;;40.00;31.70;;;691.40;819.20;;;;;;4976354;28;20074;-69
2021/10/27 12:45:47;;;;;;;38.00;30.70;;;;;;;;;;4976777;28;20018;-69
2021/10/27 12:48:18;;;;;;;38.78;32.13;;;692.00;819.20;;;;;;4976830;28;20385;-70
2021/10/27 12:51:01;;;;;;;33.60;29.88;;;;;;;;;;4976794;28;20047;-69
2021/10/27 12:53:35;;;;;;;33.75;29.05;;;;;;;;;;4976671;28;20039;-69
2021/10/27 12:56:12;;;;;;;33.53;29.98;;;640.10;896.00;;;;;;4976467;28;20445;-69
2021/10/27 12:58:42;;;;;;;40.58;30.98;;;;;;;;;;4976595;28;20026;-69
2021/10/27 13:01:28;;;;;;;34.92;30.30;;;;;;;;;;4976462;28;20046;-69
2021/10/27 13:22:37;;;;;;;45.22;31.75;;;;;;;;;;4965081;28;20057;-68
2021/10/27 13:33:19;;;;;;;44.28;37.17;;;512.00;1100.80;;;;;;4975524;28;20077;-68
2021/10/27 13:35:46;;;;;;;38.88;29.92;;;512.00;1100.80;;;;;;4975703;28;20039;-69
2021/10/27 13:38:13;;;;;;;48.15;31.63;;;;;;;;;;4975742;28;20030;-67
2021/10/27 13:40:42;;;;;;;39.10;33.53;;;512.10;1075.20;;;;;;4975623;28;20038;-69
2021/10/27 13:48:42;;;;;;;33.30;27.05;;;;;;;;;;4975506;28;20033;-67
2021/10/27 14:07:43;;;;;;;46.65;34.97;;;;;;;;;;4975306;28;20410;-67
2021/10/27 14:10:15;;;;;;;51.28;37.08;;;;;;;;;;4975227;28;20022;-68
2021/10/27 15:50:55;;;;;;;72.47;47.08;;;435.60;1382.40;;;;;;4894925;29;20435;-68
2021/10/27 15:53:21;;;;;;;;;;;435.60;1408.00;;;;;;4895556;29;20469;-68
2021/10/27 15:55:46;;;;;;;50.50;38.08;;;435.60;1382.40;;;;;;4893899;29;20019;-68
2021/10/27 15:58:12;;;;;;;63.92;42.05;;;435.60;1408.00;;;;;;4895316;29;20020;-68
2021/10/27 16:00:39;;;;;;;49.67;38.38;;;435.60;1408.00;;;;;;4894808;29;20040;-68
2021/10/27 16:03:07;;;;;;;53.38;41.63;;;435.60;1382.40;;;;;;4894877;29;20475;-68
2021/10/27 16:05:39;;;;;;;69.20;46.72;;;435.60;1382.40;;;;;;4894963;29;20060;-68
2021/10/27 16:08:11;;;;;;;70.43;47.85;;;435.70;1382.40;;;;;;4895111;29;20045;-68
2021/10/27 16:10:38;;;;;;;60.60;47.05;;;435.60;1382.40;;;;;;4895060;29;20028;-68
2021/10/27 16:13:04;;;;;;;60.85;47.15;;;435.60;1408.00;;;;;;4894822;29;20518;-69
2021/10/27 16:15:42;;;;;;;71.00;48.92;;;435.60;1408.00;;;;;;4894985;29;20045;-72
2021/10/27 16:18:13;;;;;;;79.57;51.00;;;435.60;1408.00;;;;;;4894898;29;20032;-68
2021/10/27 16:20:41;;;;;;;72.03;49.83;;;435.50;1408.00;;;;;;4895018;29;20045;-68
2021/10/27 16:23:12;;;;;;;70.97;48.10;;;435.60;1408.00;;;;;;4894726;29;20055;-68
2021/10/27 16:25:39;;;;;;;52.08;41.78;;;435.60;1408.00;;;;;;4894981;29;20443;-68
2021/10/27 16:28:05;;;;;;;52.08;38.28;;;;;;;;;;4943006;28;20050;-71
2021/10/27 16:30:32;;;;;;;59.30;41.15;;;;;;;;;;4973505;28;20027;-72
2021/10/27 16:32:58;;;;;;;50.13;39.05;;;;;;;;;;4973419;28;20054;-73
2021/10/27 16:35:24;;;;;;;56.85;41.05;;;;;;;;;;4972935;28;20043;-71
2021/10/27 16:37:50;;;;;;;58.92;45.65;;;;;;;;;;4973061;28;20035;-73
2021/10/27 16:40:16;;;;;;;84.05;48.97;;;;;;;;;;4972986;28;20070;-73
2021/10/27 16:42:43;;;;;;;67.35;47.80;;;;;;;;;;4973068;28;20110;-68
2021/10/27 16:45:10;;;;;;;60.75;44.15;;;;;;;;;;4973393;28;20437;-67
2021/10/27 16:47:36;;;;;;;72.55;47.05;;;;;;;;;;4973509;28;20015;-67
2021/10/27 16:50:05;;;;;;;72.20;50.30;;;;;;;;;;4973018;28;20027;-68
2021/10/27 16:52:31;;;;;;;82.32;55.08;;;435.20;1408.00;;;;;;4973215;28;20037;-69
2021/10/27 16:54:57;;;;;;;91.35;65.53;;;410.50;1433.60;;;;;;4972919;28;20529;-69
2021/10/27 16:57:24;;;;;;;103.93;71.38;;;435.20;1433.60;;;;;;4972756;28;20113;-70
2021/10/27 16:59:50;;;;;;;97.70;68.38;;;;;;;;;;4955503;28;20027;-68
2021/10/27 17:02:16;;;;;;;111.63;80.15;;;435.30;1433.60;;;;;;4972902;28;20049;-68
2021/10/27 17:04:42;;;;;;;133.27;91.68;;;435.30;1459.20;;;;;;4972770;28;20110;-68
2021/10/27 17:07:08;;;;;;;133.55;100.55;;;435.20;1459.20;;;;;;4973460;28;20081;-68
2021/10/27 17:09:37;;;;;;;143.07;99.15;;;435.20;1484.80;;;;;;4976333;28;20034;-68
2021/10/27 17:12:04;;;;;;;158.48;100.00;;;435.20;1484.80;;;;;;4976199;28;20026;-69
2021/10/27 17:14:30;;;;;;;144.15;107.65;;;;;;;;;;4976639;28;20375;-68
2021/10/27 17:16:56;;;;;;;129.77;99.68;;;;;;;;;;4976145;28;20019;-67
2021/10/27 17:19:22;;;;;;;118.22;89.35;;;;;;;;;;4976146;28;20030;-68
2021/10/27 17:21:48;;;;;;;117.60;88.00;;;;;;;;;;4976114;28;20027;-68
2021/10/27 17:24:16;;;;;;;118.97;91.30;;;;;;;;;;4976116;28;20034;-68
2021/10/27 17:26:43;;;;;;;127.05;99.13;;;;;;;;;;4975674;28;20054;-68
2021/10/27 17:29:09;;;;;;;130.70;98.88;;;;;;;;;;4976069;28;20023;-68
2021/10/27 17:31:35;;;;;;;142.27;104.65;;;;;;;;;;4976272;28;20093;-68
2021/10/27 17:34:01;;;;;;;224.35;163.23;;;410.00;1561.60;;;;;;4975940;28;20033;-68
2021/10/27 17:36:27;;;;;;;226.43;165.70;;;409.80;1612.80;;;;;;4975840;28;20130;-68
2021/10/27 17:38:54;;;;;;;245.00;178.52;;;410.00;1587.20;;;;;;4975859;28;20023;-68
2021/10/27 17:41:21;;;;;;;261.58;195.48;;;410.00;1587.20;;;;;;4975543;28;20039;-68